Terminal Aerodrome Forecast
Issued by NWS North Platte, NE

Home | Current Version | Previous Version | Graphics & Text | Print | Product List | Glossary On
Versions: 1 2 3 4 5 6 7 8 9 10 11 12 13 14 15
896
FTUS43 KLBF 111135
TAFVTN
TAF
KVTN 111135Z 1112/1212 30017G24KT P6SM FEW250
     FM111600 32021G30KT P6SM BKN070
     FM111800 33023G34KT P6SM BKN035
     FM112300 33016G24KT P6SM BKN030
     FM120200 31008KT P6SM SCT040
     FM120700 30008KT P6SM SCT150=

USA.gov is the U.S. government's official web portal to all federal, state and local government web resources and services.